sensor_id;sensor_type;location;lat;lon;timestamp;P1;durP1;ratioP1;P2;durP2;ratioP2
24867;SDS011;12941;48.698;9.310;2023-10-31T00:00:41;0.3;;;0.3;;
24867;SDS011;12941;48.698;9.310;2023-10-31T00:01:46;0.9;;;0.2;;
24867;SDS011;12941;48.698;9.310;2023-10-31T00:02:51;0.9;;;0.2;;
24867;SDS011;12941;48.698;9.310;2023-10-31T00:03:51;0.9;;;0.2;;
24867;SDS011;12941;48.698;9.310;2023-10-31T00:04:51;0.9;;;0.2;;
24867;SDS011;12941;48.698;9.310;2023-10-31T00:05:56;1.7;;;0.4;;
24867;SDS011;12941;48.698;9.310;2023-10-31T00:07:01;1.7;;;0.4;;
24867;SDS011;12941;48.698;9.310;2023-10-31T00:08:01;1.7;;;0.4;;
24867;SDS011;12941;48.698;9.310;2023-10-31T00:09:06;1.7;;;0.4;;
24867;SDS011;12941;48.698;9.310;2023-10-31T00:10:11;1.7;;;0.4;;
24867;SDS011;12941;48.698;9.310;2023-10-31T00:11:16;0.6;;;0.2;;
24867;SDS011;12941;48.698;9.310;2023-10-31T00:12:21;0.6;;;0.2;;
24867;SDS011;12941;48.698;9.310;2023-10-31T00:13:26;0.6;;;0.2;;
24867;SDS011;12941;48.698;9.310;2023-10-31T00:14:31;0.6;;;0.2;;
24867;SDS011;12941;48.698;9.310;2023-10-31T00:15:31;0.6;;;0.2;;
24867;SDS011;12941;48.698;9.310;2023-10-31T00:16:36;0.3;;;0.3;;
24867;SDS011;12941;48.698;9.310;2023-10-31T00:17:36;0.3;;;0.3;;
24867;SDS011;12941;48.698;9.310;2023-10-31T00:18:41;0.3;;;0.3;;
24867;SDS011;12941;48.698;9.310;2023-10-31T00:19:41;0.3;;;0.3;;
24867;SDS011;12941;48.698;9.310;2023-10-31T00:20:41;0.3;;;0.3;;
24867;SDS011;12941;48.698;9.310;2023-10-31T00:21:46;1.1;;;0.5;;
24867;SDS011;12941;48.698;9.310;2023-10-31T00:22:51;1.1;;;0.5;;
24867;SDS011;12941;48.698;9.310;2023-10-31T00:23:56;1.1;;;0.5;;
24867;SDS011;12941;48.698;9.310;2023-10-31T00:24:56;1.1;;;0.5;;
24867;SDS011;12941;48.698;9.310;2023-10-31T00:25:56;0.4;;;0.4;;
24867;SDS011;12941;48.698;9.310;2023-10-31T00:27:01;0.4;;;0.4;;
24867;SDS011;12941;48.698;9.310;2023-10-31T00:28:06;0.4;;;0.4;;
24867;SDS011;12941;48.698;9.310;2023-10-31T00:29:06;0.4;;;0.4;;
24867;SDS011;12941;48.698;9.310;2023-10-31T00:30:07;0.4;;;0.4;;
24867;SDS011;12941;48.698;9.310;2023-10-31T00:31:11;0.2;;;0.2;;
24867;SDS011;12941;48.698;9.310;2023-10-31T00:32:11;0.2;;;0.2;;
24867;SDS011;12941;48.698;9.310;2023-10-31T00:33:16;0.2;;;0.2;;
24867;SDS011;12941;48.698;9.310;2023-10-31T00:34:21;0.2;;;0.2;;
24867;SDS011;12941;48.698;9.310;2023-10-31T00:35:21;0.2;;;0.2;;
24867;SDS011;12941;48.698;9.310;2023-10-31T00:36:21;0.8;;;0.3;;
24867;SDS011;12941;48.698;9.310;2023-10-31T00:37:26;0.8;;;0.3;;
24867;SDS011;12941;48.698;9.310;2023-10-31T00:38:31;0.8;;;0.3;;
24867;SDS011;12941;48.698;9.310;2023-10-31T00:39:31;0.8;;;0.3;;
24867;SDS011;12941;48.698;9.310;2023-10-31T00:40:36;0.8;;;0.3;;
24867;SDS011;12941;48.698;9.310;2023-10-31T00:41:37;0.8;;;0.2;;
24867;SDS011;12941;48.698;9.310;2023-10-31T00:42:36;0.8;;;0.2;;
24867;SDS011;12941;48.698;9.310;2023-10-31T00:43:41;0.8;;;0.2;;
24867;SDS011;12941;48.698;9.310;2023-10-31T00:44:42;0.8;;;0.2;;
24867;SDS011;12941;48.698;9.310;2023-10-31T00:45:42;0.8;;;0.2;;
24867;SDS011;12941;48.698;9.310;2023-10-31T00:46:42;1;;;0.3;;
24867;SDS011;12941;48.698;9.310;2023-10-31T00:47:46;1;;;0.3;;
24867;SDS011;12941;48.698;9.310;2023-10-31T00:48:46;1;;;0.3;;
24867;SDS011;12941;48.698;9.310;2023-10-31T00:49:51;1;;;0.3;;
24867;SDS011;12941;48.698;9.310;2023-10-31T00:50:51;0.2;;;0.2;;
24867;SDS011;12941;48.698;9.310;2023-10-31T00:51:56;0.2;;;0.2;;
24867;SDS011;12941;48.698;9.310;2023-10-31T00:53:01;0.2;;;0.2;;
24867;SDS011;12941;48.698;9.310;2023-10-31T00:54:06;0.2;;;0.2;;
24867;SDS011;12941;48.698;9.310;2023-10-31T00:55:11;0.2;;;0.2;;
24867;SDS011;12941;48.698;9.310;2023-10-31T00:56:11;0.2;;;0.1;;
24867;SDS011;12941;48.698;9.310;2023-10-31T00:57:17;0.2;;;0.1;;
24867;SDS011;12941;48.698;9.310;2023-10-31T00:58:17;0.2;;;0.1;;
24867;SDS011;12941;48.698;9.310;2023-10-31T00:59:22;0.2;;;0.1;;
24867;SDS011;12941;48.698;9.310;2023-10-31T01:00:26;0.2;;;0.1;;
24867;SDS011;12941;48.698;9.310;2023-10-31T01:01:26;0.1;;;0.1;;
24867;SDS011;12941;48.698;9.310;2023-10-31T01:02:26;0.1;;;0.1;;
24867;SDS011;12941;48.698;9.310;2023-10-31T01:03:32;0.1;;;0.1;;
24867;SDS011;12941;48.698;9.310;2023-10-31T01:04:36;0.1;;;0.1;;
24867;SDS011;12941;48.698;9.310;2023-10-31T01:05:36;0.1;;;0.1;;
24867;SDS011;12941;48.698;9.310;2023-10-31T01:06:42;0.5;;;0.2;;
24867;SDS011;12941;48.698;9.310;2023-10-31T01:07:46;0.5;;;0.2;;
24867;SDS011;12941;48.698;9.310;2023-10-31T01:08:46;0.5;;;0.2;;
24867;SDS011;12941;48.698;9.310;2023-10-31T01:09:52;0.5;;;0.2;;
24867;SDS011;12941;48.698;9.310;2023-10-31T01:10:56;0.5;;;0.2;;
24867;SDS011;12941;48.698;9.310;2023-10-31T01:11:57;0.5;;;0.2;;
24867;SDS011;12941;48.698;9.310;2023-10-31T01:13:02;0.5;;;0.2;;
24867;SDS011;12941;48.698;9.310;2023-10-31T01:14:02;0.5;;;0.2;;
24867;SDS011;12941;48.698;9.310;2023-10-31T01:15:02;0.5;;;0.2;;
24867;SDS011;12941;48.698;9.310;2023-10-31T01:16:02;0.2;;;0.2;;
24867;SDS011;12941;48.698;9.310;2023-10-31T01:17:07;0.2;;;0.2;;
24867;SDS011;12941;48.698;9.310;2023-10-31T01:18:07;0.2;;;0.2;;
24867;SDS011;12941;48.698;9.310;2023-10-31T01:19:12;0.2;;;0.2;;
24867;SDS011;12941;48.698;9.310;2023-10-31T01:20:12;0.2;;;0.2;;
24867;SDS011;12941;48.698;9.310;2023-10-31T01:21:12;0.5;;;0.3;;
24867;SDS011;12941;48.698;9.310;2023-10-31T01:22:12;0.5;;;0.3;;
24867;SDS011;12941;48.698;9.310;2023-10-31T01:23:17;0.5;;;0.3;;
24867;SDS011;12941;48.698;9.310;2023-10-31T01:24:22;0.5;;;0.3;;
24867;SDS011;12941;48.698;9.310;2023-10-31T01:25:27;0.5;;;0.3;;
24867;SDS011;12941;48.698;9.310;2023-10-31T01:26:32;0.4;;;0.4;;
24867;SDS011;12941;48.698;9.310;2023-10-31T01:27:32;0.4;;;0.4;;
24867;SDS011;12941;48.698;9.310;2023-10-31T01:28:32;0.4;;;0.4;;
24867;SDS011;12941;48.698;9.310;2023-10-31T01:29:37;0.4;;;0.4;;
24867;SDS011;12941;48.698;9.310;2023-10-31T01:30:37;0.4;;;0.4;;
24867;SDS011;12941;48.698;9.310;2023-10-31T01:31:37;0.7;;;0.3;;
24867;SDS011;12941;48.698;9.310;2023-10-31T01:32:42;0.7;;;0.3;;
24867;SDS011;12941;48.698;9.310;2023-10-31T01:33:42;0.7;;;0.3;;
24867;SDS011;12941;48.698;9.310;2023-10-31T01:34:47;0.7;;;0.3;;
24867;SDS011;12941;48.698;9.310;2023-10-31T01:35:47;0.7;;;0.4;;
24867;SDS011;12941;48.698;9.310;2023-10-31T01:36:52;0.7;;;0.4;;
24867;SDS011;12941;48.698;9.310;2023-10-31T01:37:52;0.7;;;0.4;;
24867;SDS011;12941;48.698;9.310;2023-10-31T01:38:57;0.7;;;0.4;;
24867;SDS011;12941;48.698;9.310;2023-10-31T01:39:57;0.7;;;0.4;;
24867;SDS011;12941;48.698;9.310;2023-10-31T01:41:02;0.5;;;0.3;;
24867;SDS011;12941;48.698;9.310;2023-10-31T01:42:02;0.5;;;0.3;;
24867;SDS011;12941;48.698;9.310;2023-10-31T01:43:02;0.5;;;0.3;;
24867;SDS011;12941;48.698;9.310;2023-10-31T01:44:02;0.5;;;0.3;;
24867;SDS011;12941;48.698;9.310;2023-10-31T01:45:07;0.5;;;0.3;;
24867;SDS011;12941;48.698;9.310;2023-10-31T01:46:07;1.8;;;0.3;;
24867;SDS011;12941;48.698;9.310;2023-10-31T01:47:12;1.8;;;0.3;;
24867;SDS011;12941;48.698;9.310;2023-10-31T01:48:12;1.8;;;0.3;;
24867;SDS011;12941;48.698;9.310;2023-10-31T01:49:12;1.8;;;0.3;;
24867;SDS011;12941;48.698;9.310;2023-10-31T01:50:12;1.8;;;0.3;;
24867;SDS011;12941;48.698;9.310;2023-10-31T01:51:17;0.9;;;0.2;;
24867;SDS011;12941;48.698;9.310;2023-10-31T01:52:17;0.9;;;0.2;;
24867;SDS011;12941;48.698;9.310;2023-10-31T01:53:22;0.9;;;0.2;;
24867;SDS011;12941;48.698;9.310;2023-10-31T01:54:27;0.9;;;0.2;;
24867;SDS011;12941;48.698;9.310;2023-10-31T01:55:32;0.9;;;0.2;;
24867;SDS011;12941;48.698;9.310;2023-10-31T01:56:32;0.6;;;0.4;;
24867;SDS011;12941;48.698;9.310;2023-10-31T01:57:32;0.6;;;0.4;;
24867;SDS011;12941;48.698;9.310;2023-10-31T01:58:37;0.6;;;0.4;;
24867;SDS011;12941;48.698;9.310;2023-10-31T01:59:37;0.6;;;0.4;;
24867;SDS011;12941;48.698;9.310;2023-10-31T02:00:42;0.6;;;0.4;;
24867;SDS011;12941;48.698;9.310;2023-10-31T02:01:47;0.7;;;0.3;;
24867;SDS011;12941;48.698;9.310;2023-10-31T02:02:47;0.7;;;0.3;;
24867;SDS011;12941;48.698;9.310;2023-10-31T02:03:52;0.7;;;0.3;;
24867;SDS011;12941;48.698;9.310;2023-10-31T02:04:57;0.7;;;0.3;;
24867;SDS011;12941;48.698;9.310;2023-10-31T02:05:57;0.3;;;0.3;;
24867;SDS011;12941;48.698;9.310;2023-10-31T02:06:57;0.3;;;0.3;;
24867;SDS011;12941;48.698;9.310;2023-10-31T02:08:02;0.3;;;0.3;;
24867;SDS011;12941;48.698;9.310;2023-10-31T02:09:07;0.3;;;0.3;;
24867;SDS011;12941;48.698;9.310;2023-10-31T02:10:07;0.3;;;0.3;;
24867;SDS011;12941;48.698;9.310;2023-10-31T02:11:12;0.7;;;0.3;;
24867;SDS011;12941;48.698;9.310;2023-10-31T02:12:30;0.7;;;0.3;;
24867;SDS011;12941;48.698;9.310;2023-10-31T02:13:22;0.7;;;0.3;;
24867;SDS011;12941;48.698;9.310;2023-10-31T02:14:23;0.7;;;0.3;;
24867;SDS011;12941;48.698;9.310;2023-10-31T02:15:27;0.7;;;0.3;;
24867;SDS011;12941;48.698;9.310;2023-10-31T02:16:27;1;;;0.2;;
24867;SDS011;12941;48.698;9.310;2023-10-31T02:17:27;1;;;0.2;;
24867;SDS011;12941;48.698;9.310;2023-10-31T02:18:27;1;;;0.2;;
24867;SDS011;12941;48.698;9.310;2023-10-31T02:19:27;1;;;0.2;;
24867;SDS011;12941;48.698;9.310;2023-10-31T02:20:32;1;;;0.2;;
24867;SDS011;12941;48.698;9.310;2023-10-31T02:21:38;0.6;;;0.2;;
24867;SDS011;12941;48.698;9.310;2023-10-31T02:22:42;0.6;;;0.2;;
24867;SDS011;12941;48.698;9.310;2023-10-31T02:23:55;0.6;;;0.2;;
24867;SDS011;12941;48.698;9.310;2023-10-31T02:24:47;0.6;;;0.2;;
24867;SDS011;12941;48.698;9.310;2023-10-31T02:25:50;1.4;;;0.3;;
24867;SDS011;12941;48.698;9.310;2023-10-31T02:26:52;1.4;;;0.3;;
24867;SDS011;12941;48.698;9.310;2023-10-31T02:27:57;1.4;;;0.3;;
24867;SDS011;12941;48.698;9.310;2023-10-31T02:28:57;1.4;;;0.3;;
24867;SDS011;12941;48.698;9.310;2023-10-31T02:29:57;1.4;;;0.3;;
24867;SDS011;12941;48.698;9.310;2023-10-31T02:30:57;1.9;;;0.3;;
24867;SDS011;12941;48.698;9.310;2023-10-31T02:32:02;1.9;;;0.3;;
24867;SDS011;12941;48.698;9.310;2023-10-31T02:33:02;1.9;;;0.3;;
24867;SDS011;12941;48.698;9.310;2023-10-31T02:34:07;1.9;;;0.3;;
24867;SDS011;12941;48.698;9.310;2023-10-31T02:35:08;1.9;;;0.3;;
24867;SDS011;12941;48.698;9.310;2023-10-31T02:36:07;0.2;;;0.2;;
24867;SDS011;12941;48.698;9.310;2023-10-31T02:37:07;0.2;;;0.2;;
24867;SDS011;12941;48.698;9.310;2023-10-31T02:38:07;0.2;;;0.2;;
24867;SDS011;12941;48.698;9.310;2023-10-31T02:39:12;0.2;;;0.2;;
24867;SDS011;12941;48.698;9.310;2023-10-31T02:40:18;0.2;;;0.2;;
24867;SDS011;12941;48.698;9.310;2023-10-31T02:41:17;1.4;;;0.4;;
24867;SDS011;12941;48.698;9.310;2023-10-31T02:42:22;1.4;;;0.4;;
24867;SDS011;12941;48.698;9.310;2023-10-31T02:43:22;1.4;;;0.4;;
24867;SDS011;12941;48.698;9.310;2023-10-31T02:44:22;1.4;;;0.4;;
24867;SDS011;12941;48.698;9.310;2023-10-31T02:45:27;1.4;;;0.4;;
24867;SDS011;12941;48.698;9.310;2023-10-31T02:46:28;0.2;;;0.2;;
24867;SDS011;12941;48.698;9.310;2023-10-31T02:47:28;0.2;;;0.2;;
24867;SDS011;12941;48.698;9.310;2023-10-31T02:48:27;0.2;;;0.2;;
24867;SDS011;12941;48.698;9.310;2023-10-31T02:49:28;0.2;;;0.2;;
24867;SDS011;12941;48.698;9.310;2023-10-31T02:50:32;0.2;;;0.2;;
24867;SDS011;12941;48.698;9.310;2023-10-31T02:51:37;2.6;;;0.5;;
24867;SDS011;12941;48.698;9.310;2023-10-31T02:52:42;2.6;;;0.5;;
24867;SDS011;12941;48.698;9.310;2023-10-31T02:53:43;2.6;;;0.5;;
24867;SDS011;12941;48.698;9.310;2023-10-31T02:54:42;2.6;;;0.5;;
24867;SDS011;12941;48.698;9.310;2023-10-31T02:55:47;0.3;;;0.3;;
24867;SDS011;12941;48.698;9.310;2023-10-31T02:56:48;0.3;;;0.3;;
24867;SDS011;12941;48.698;9.310;2023-10-31T02:57:53;0.3;;;0.3;;
24867;SDS011;12941;48.698;9.310;2023-10-31T02:58:53;0.3;;;0.3;;
24867;SDS011;12941;48.698;9.310;2023-10-31T02:59:53;0.3;;;0.3;;
24867;SDS011;12941;48.698;9.310;2023-10-31T03:00:57;2.7;;;0.4;;
24867;SDS011;12941;48.698;9.310;2023-10-31T03:01:57;2.7;;;0.4;;
24867;SDS011;12941;48.698;9.310;2023-10-31T03:02:57;2.7;;;0.4;;
24867;SDS011;12941;48.698;9.310;2023-10-31T03:03:58;2.7;;;0.4;;
24867;SDS011;12941;48.698;9.310;2023-10-31T03:04:58;2.7;;;0.4;;
24867;SDS011;12941;48.698;9.310;2023-10-31T03:06:04;0.7;;;0.4;;
24867;SDS011;12941;48.698;9.310;2023-10-31T03:07:08;0.7;;;0.4;;
24867;SDS011;12941;48.698;9.310;2023-10-31T03:08:08;0.7;;;0.4;;
24867;SDS011;12941;48.698;9.310;2023-10-31T03:09:13;0.7;;;0.4;;
24867;SDS011;12941;48.698;9.310;2023-10-31T03:10:13;0.7;;;0.4;;
24867;SDS011;12941;48.698;9.310;2023-10-31T03:11:21;1.2;;;0.3;;
24867;SDS011;12941;48.698;9.310;2023-10-31T03:12:18;1.2;;;0.3;;
24867;SDS011;12941;48.698;9.310;2023-10-31T03:13:23;1.2;;;0.3;;
24867;SDS011;12941;48.698;9.310;2023-10-31T03:14:23;1.2;;;0.3;;
24867;SDS011;12941;48.698;9.310;2023-10-31T03:15:28;1.2;;;0.3;;
24867;SDS011;12941;48.698;9.310;2023-10-31T03:16:33;0.7;;;0.5;;
24867;SDS011;12941;48.698;9.310;2023-10-31T03:17:33;0.7;;;0.5;;
24867;SDS011;12941;48.698;9.310;2023-10-31T03:18:33;0.7;;;0.5;;
24867;SDS011;12941;48.698;9.310;2023-10-31T03:19:38;0.7;;;0.5;;
24867;SDS011;12941;48.698;9.310;2023-10-31T03:20:38;0.7;;;0.5;;
24867;SDS011;12941;48.698;9.310;2023-10-31T03:21:43;0.5;;;0.3;;
24867;SDS011;12941;48.698;9.310;2023-10-31T03:22:43;0.5;;;0.3;;
24867;SDS011;12941;48.698;9.310;2023-10-31T03:23:43;0.5;;;0.3;;
24867;SDS011;12941;48.698;9.310;2023-10-31T03:24:48;0.5;;;0.3;;
24867;SDS011;12941;48.698;9.310;2023-10-31T03:25:48;1.1;;;0.4;;
24867;SDS011;12941;48.698;9.310;2023-10-31T03:26:53;1;;;0.4;;
24867;SDS011;12941;48.698;9.310;2023-10-31T03:27:58;1;;;0.4;;
24867;SDS011;12941;48.698;9.310;2023-10-31T03:28:58;1;;;0.4;;
24867;SDS011;12941;48.698;9.310;2023-10-31T03:30:03;1;;;0.4;;
24867;SDS011;12941;48.698;9.310;2023-10-31T03:31:08;0.5;;;0.3;;
24867;SDS011;12941;48.698;9.310;2023-10-31T03:32:08;0.5;;;0.3;;
24867;SDS011;12941;48.698;9.310;2023-10-31T03:33:14;0.5;;;0.3;;
24867;SDS011;12941;48.698;9.310;2023-10-31T03:34:18;0.5;;;0.3;;
24867;SDS011;12941;48.698;9.310;2023-10-31T03:35:23;0.5;;;0.3;;
24867;SDS011;12941;48.698;9.310;2023-10-31T03:36:23;1.5;;;0.4;;
24867;SDS011;12941;48.698;9.310;2023-10-31T03:37:23;1.5;;;0.4;;
24867;SDS011;12941;48.698;9.310;2023-10-31T03:38:28;1.5;;;0.4;;
24867;SDS011;12941;48.698;9.310;2023-10-31T03:39:33;1.5;;;0.4;;
24867;SDS011;12941;48.698;9.310;2023-10-31T03:40:33;1.5;;;0.4;;
24867;SDS011;12941;48.698;9.310;2023-10-31T03:41:33;1.2;;;0.3;;
24867;SDS011;12941;48.698;9.310;2023-10-31T03:42:38;1.2;;;0.3;;
24867;SDS011;12941;48.698;9.310;2023-10-31T03:43:43;1.2;;;0.3;;
24867;SDS011;12941;48.698;9.310;2023-10-31T03:44:43;1.2;;;0.3;;
24867;SDS011;12941;48.698;9.310;2023-10-31T03:45:43;1.2;;;0.3;;
24867;SDS011;12941;48.698;9.310;2023-10-31T03:46:43;0.6;;;0.4;;
24867;SDS011;12941;48.698;9.310;2023-10-31T03:47:48;0.6;;;0.4;;
24867;SDS011;12941;48.698;9.310;2023-10-31T03:48:48;0.6;;;0.4;;
24867;SDS011;12941;48.698;9.310;2023-10-31T03:49:48;0.6;;;0.4;;
24867;SDS011;12941;48.698;9.310;2023-10-31T03:50:48;1;;;0.4;;
24867;SDS011;12941;48.698;9.310;2023-10-31T03:51:53;0.8;;;0.3;;
24867;SDS011;12941;48.698;9.310;2023-10-31T03:52:53;0.8;;;0.3;;
24867;SDS011;12941;48.698;9.310;2023-10-31T03:53:53;0.8;;;0.3;;
24867;SDS011;12941;48.698;9.310;2023-10-31T03:54:53;0.8;;;0.3;;
24867;SDS011;12941;48.698;9.310;2023-10-31T03:55:53;0.9;;;0.3;;
24867;SDS011;12941;48.698;9.310;2023-10-31T03:56:58;0.9;;;0.3;;
24867;SDS011;12941;48.698;9.310;2023-10-31T03:58:03;0.9;;;0.3;;
24867;SDS011;12941;48.698;9.310;2023-10-31T03:59:03;0.9;;;0.3;;
24867;SDS011;12941;48.698;9.310;2023-10-31T04:00:08;0.9;;;0.3;;
24867;SDS011;12941;48.698;9.310;2023-10-31T04:01:08;0.8;;;0.5;;
24867;SDS011;12941;48.698;9.310;2023-10-31T04:02:13;0.8;;;0.5;;
24867;SDS011;12941;48.698;9.310;2023-10-31T04:03:18;0.8;;;0.5;;
24867;SDS011;12941;48.698;9.310;2023-10-31T04:04:23;0.8;;;0.5;;
24867;SDS011;12941;48.698;9.310;2023-10-31T04:05:28;0.8;;;0.5;;
24867;SDS011;12941;48.698;9.310;2023-10-31T04:06:33;1.7;;;0.5;;
24867;SDS011;12941;48.698;9.310;2023-10-31T04:07:38;1.7;;;0.5;;
24867;SDS011;12941;48.698;9.310;2023-10-31T04:08:43;1.7;;;0.5;;
24867;SDS011;12941;48.698;9.310;2023-10-31T04:09:48;1.7;;;0.5;;
24867;SDS011;12941;48.698;9.310;2023-10-31T04:10:48;1.9;;;0.8;;
24867;SDS011;12941;48.698;9.310;2023-10-31T04:11:53;1.9;;;0.7;;
24867;SDS011;12941;48.698;9.310;2023-10-31T04:12:58;1.9;;;0.7;;
24867;SDS011;12941;48.698;9.310;2023-10-31T04:14:03;1.9;;;0.7;;
24867;SDS011;12941;48.698;9.310;2023-10-31T04:15:09;1.9;;;0.7;;
24867;SDS011;12941;48.698;9.310;2023-10-31T04:16:08;1.7;;;0.2;;
24867;SDS011;12941;48.698;9.310;2023-10-31T04:17:13;1.7;;;0.2;;
24867;SDS011;12941;48.698;9.310;2023-10-31T04:18:13;1.7;;;0.2;;
24867;SDS011;12941;48.698;9.310;2023-10-31T04:19:18;1.7;;;0.2;;
24867;SDS011;12941;48.698;9.310;2023-10-31T04:20:18;1.7;;;0.2;;
24867;SDS011;12941;48.698;9.310;2023-10-31T04:21:19;1.1;;;0.3;;
24867;SDS011;12941;48.698;9.310;2023-10-31T04:22:23;1.1;;;0.3;;
24867;SDS011;12941;48.698;9.310;2023-10-31T04:23:29;1.1;;;0.3;;
24867;SDS011;12941;48.698;9.310;2023-10-31T04:24:29;1.1;;;0.3;;
24867;SDS011;12941;48.698;9.310;2023-10-31T04:25:29;1.1;;;0.3;;
24867;SDS011;12941;48.698;9.310;2023-10-31T04:26:34;0.3;;;0.3;;
24867;SDS011;12941;48.698;9.310;2023-10-31T04:27:39;0.3;;;0.3;;
24867;SDS011;12941;48.698;9.310;2023-10-31T04:28:39;0.3;;;0.3;;
24867;SDS011;12941;48.698;9.310;2023-10-31T04:29:44;0.3;;;0.3;;
24867;SDS011;12941;48.698;9.310;2023-10-31T04:30:44;0.3;;;0.3;;
24867;SDS011;12941;48.698;9.310;2023-10-31T04:31:44;1.6;;;0.3;;
24867;SDS011;12941;48.698;9.310;2023-10-31T04:32:44;1.6;;;0.3;;
24867;SDS011;12941;48.698;9.310;2023-10-31T04:33:49;1.6;;;0.3;;
24867;SDS011;12941;48.698;9.310;2023-10-31T04:34:49;1.6;;;0.3;;
24867;SDS011;12941;48.698;9.310;2023-10-31T04:35:49;0.6;;;0.5;;
24867;SDS011;12941;48.698;9.310;2023-10-31T04:36:54;0.6;;;0.5;;
24867;SDS011;12941;48.698;9.310;2023-10-31T04:37:59;0.6;;;0.5;;
24867;SDS011;12941;48.698;9.310;2023-10-31T04:39:04;0.6;;;0.5;;
24867;SDS011;12941;48.698;9.310;2023-10-31T04:40:04;0.6;;;0.5;;
24867;SDS011;12941;48.698;9.310;2023-10-31T04:41:04;0.8;;;0.2;;
24867;SDS011;12941;48.698;9.310;2023-10-31T04:42:09;0.8;;;0.2;;
24867;SDS011;12941;48.698;9.310;2023-10-31T04:43:09;0.8;;;0.2;;
24867;SDS011;12941;48.698;9.310;2023-10-31T04:44:09;0.8;;;0.2;;
24867;SDS011;12941;48.698;9.310;2023-10-31T04:45:09;0.8;;;0.2;;
24867;SDS011;12941;48.698;9.310;2023-10-31T04:46:09;0.3;;;0.3;;
24867;SDS011;12941;48.698;9.310;2023-10-31T04:47:14;0.3;;;0.3;;
24867;SDS011;12941;48.698;9.310;2023-10-31T04:48:19;0.3;;;0.3;;
24867;SDS011;12941;48.698;9.310;2023-10-31T04:49:19;0.3;;;0.3;;
24867;SDS011;12941;48.698;9.310;2023-10-31T04:50:24;0.3;;;0.3;;
24867;SDS011;12941;48.698;9.310;2023-10-31T04:51:24;0.6;;;0.2;;
24867;SDS011;12941;48.698;9.310;2023-10-31T04:52:29;0.6;;;0.2;;
24867;SDS011;12941;48.698;9.310;2023-10-31T04:53:29;0.6;;;0.2;;
24867;SDS011;12941;48.698;9.310;2023-10-31T04:54:34;0.6;;;0.2;;
24867;SDS011;12941;48.698;9.310;2023-10-31T04:55:34;0.6;;;0.2;;
24867;SDS011;12941;48.698;9.310;2023-10-31T04:56:39;0.8;;;0.3;;
24867;SDS011;12941;48.698;9.310;2023-10-31T04:57:39;0.8;;;0.3;;
24867;SDS011;12941;48.698;9.310;2023-10-31T04:58:39;0.8;;;0.3;;
24867;SDS011;12941;48.698;9.310;2023-10-31T04:59:40;0.8;;;0.3;;
24867;SDS011;12941;48.698;9.310;2023-10-31T05:00:44;0.8;;;0.3;;
24867;SDS011;12941;48.698;9.310;2023-10-31T05:01:48;0.5;;;0.4;;
24867;SDS011;12941;48.698;9.310;2023-10-31T05:02:44;0.5;;;0.4;;
24867;SDS011;12941;48.698;9.310;2023-10-31T05:03:45;0.5;;;0.4;;
24867;SDS011;12941;48.698;9.310;2023-10-31T05:04:45;0.5;;;0.4;;
24867;SDS011;12941;48.698;9.310;2023-10-31T05:05:50;2;;;0.3;;
24867;SDS011;12941;48.698;9.310;2023-10-31T05:06:50;2;;;0.3;;
24867;SDS011;12941;48.698;9.310;2023-10-31T05:07:55;2;;;0.3;;
24867;SDS011;12941;48.698;9.310;2023-10-31T05:08:55;2;;;0.3;;
24867;SDS011;12941;48.698;9.310;2023-10-31T05:09:55;2;;;0.3;;
24867;SDS011;12941;48.698;9.310;2023-10-31T05:11:00;1.4;;;0.5;;
24867;SDS011;12941;48.698;9.310;2023-10-31T05:12:05;1.4;;;0.5;;
24867;SDS011;12941;48.698;9.310;2023-10-31T05:13:05;1.4;;;0.5;;
24867;SDS011;12941;48.698;9.310;2023-10-31T05:14:10;1.4;;;0.5;;
24867;SDS011;12941;48.698;9.310;2023-10-31T05:15:15;1.4;;;0.5;;
24867;SDS011;12941;48.698;9.310;2023-10-31T05:16:15;1.2;;;0.3;;
24867;SDS011;12941;48.698;9.310;2023-10-31T05:17:15;1.2;;;0.3;;
24867;SDS011;12941;48.698;9.310;2023-10-31T05:18:15;1.2;;;0.3;;
24867;SDS011;12941;48.698;9.310;2023-10-31T05:19:20;1.2;;;0.3;;
24867;SDS011;12941;48.698;9.310;2023-10-31T05:20:20;1.2;;;0.3;;
24867;SDS011;12941;48.698;9.310;2023-10-31T05:21:25;0.9;;;0.3;;
24867;SDS011;12941;48.698;9.310;2023-10-31T05:22:25;0.9;;;0.3;;
24867;SDS011;12941;48.698;9.310;2023-10-31T05:23:25;0.9;;;0.3;;
24867;SDS011;12941;48.698;9.310;2023-10-31T05:24:30;0.9;;;0.3;;
24867;SDS011;12941;48.698;9.310;2023-10-31T05:25:35;0.9;;;0.3;;
24867;SDS011;12941;48.698;9.310;2023-10-31T05:26:35;1;;;0.4;;
24867;SDS011;12941;48.698;9.310;2023-10-31T05:27:40;1;;;0.4;;
24867;SDS011;12941;48.698;9.310;2023-10-31T05:28:45;1;;;0.4;;
24867;SDS011;12941;48.698;9.310;2023-10-31T05:29:45;1;;;0.4;;
24867;SDS011;12941;48.698;9.310;2023-10-31T05:30:45;3.3;;;1.9;;
24867;SDS011;12941;48.698;9.310;2023-10-31T05:31:50;3.2;;;1.8;;
24867;SDS011;12941;48.698;9.310;2023-10-31T05:32:50;3.2;;;1.8;;
24867;SDS011;12941;48.698;9.310;2023-10-31T05:33:55;3.2;;;1.8;;
24867;SDS011;12941;48.698;9.310;2023-10-31T05:34:55;3.2;;;1.8;;
24867;SDS011;12941;48.698;9.310;2023-10-31T05:35:55;25.4;;;13.6;;
24867;SDS011;12941;48.698;9.310;2023-10-31T05:37:00;25.4;;;13.6;;
24867;SDS011;12941;48.698;9.310;2023-10-31T05:38:00;25.4;;;13.6;;
24867;SDS011;12941;48.698;9.310;2023-10-31T05:39:00;25.4;;;13.6;;
24867;SDS011;12941;48.698;9.310;2023-10-31T05:40:05;25.4;;;13.6;;
24867;SDS011;12941;48.698;9.310;2023-10-31T05:41:10;13.9;;;6.9;;
24867;SDS011;12941;48.698;9.310;2023-10-31T05:42:10;13.9;;;6.9;;
24867;SDS011;12941;48.698;9.310;2023-10-31T05:43:10;13.9;;;6.9;;
24867;SDS011;12941;48.698;9.310;2023-10-31T05:44:15;13.9;;;6.9;;
24867;SDS011;12941;48.698;9.310;2023-10-31T05:45:20;13.9;;;6.9;;
24867;SDS011;12941;48.698;9.310;2023-10-31T05:46:20;4.6;;;1.8;;
24867;SDS011;12941;48.698;9.310;2023-10-31T05:47:25;4.6;;;1.8;;
24867;SDS011;12941;48.698;9.310;2023-10-31T05:48:25;4.6;;;1.8;;
24867;SDS011;12941;48.698;9.310;2023-10-31T05:49:25;4.6;;;1.8;;
24867;SDS011;12941;48.698;9.310;2023-10-31T05:50:25;4.6;;;1.8;;
24867;SDS011;12941;48.698;9.310;2023-10-31T05:51:30;1.5;;;1;;
24867;SDS011;12941;48.698;9.310;2023-10-31T05:52:35;1.5;;;1;;
24867;SDS011;12941;48.698;9.310;2023-10-31T05:53:35;1.5;;;1;;
24867;SDS011;12941;48.698;9.310;2023-10-31T05:54:35;1.5;;;1;;
24867;SDS011;12941;48.698;9.310;2023-10-31T05:55:38;1.5;;;1;;
24867;SDS011;12941;48.698;9.310;2023-10-31T05:56:35;0.6;;;0.6;;
24867;SDS011;12941;48.698;9.310;2023-10-31T05:57:40;0.6;;;0.6;;
24867;SDS011;12941;48.698;9.310;2023-10-31T05:58:45;0.6;;;0.6;;
24867;SDS011;12941;48.698;9.310;2023-10-31T05:59:50;0.6;;;0.6;;
24867;SDS011;12941;48.698;9.310;2023-10-31T06:00:55;2.2;;;0.5;;
24867;SDS011;12941;48.698;9.310;2023-10-31T06:01:55;2.2;;;0.5;;
24867;SDS011;12941;48.698;9.310;2023-10-31T06:02:55;2.2;;;0.5;;
24867;SDS011;12941;48.698;9.310;2023-10-31T06:03:55;2.2;;;0.5;;
24867;SDS011;12941;48.698;9.310;2023-10-31T06:05:00;2.2;;;0.5;;
24867;SDS011;12941;48.698;9.310;2023-10-31T06:06:00;1.2;;;0.5;;
24867;SDS011;12941;48.698;9.310;2023-10-31T06:07:06;1.2;;;0.5;;
24867;SDS011;12941;48.698;9.310;2023-10-31T06:08:05;1.2;;;0.5;;
24867;SDS011;12941;48.698;9.310;2023-10-31T06:09:05;1.2;;;0.5;;
24867;SDS011;12941;48.698;9.310;2023-10-31T06:10:10;1.2;;;0.5;;
24867;SDS011;12941;48.698;9.310;2023-10-31T06:11:15;1.3;;;0.4;;
24867;SDS011;12941;48.698;9.310;2023-10-31T06:12:20;1.3;;;0.4;;
24867;SDS011;12941;48.698;9.310;2023-10-31T06:13:26;1.3;;;0.4;;
24867;SDS011;12941;48.698;9.310;2023-10-31T06:14:30;1.3;;;0.4;;
24867;SDS011;12941;48.698;9.310;2023-10-31T06:15:36;1.3;;;0.4;;
24867;SDS011;12941;48.698;9.310;2023-10-31T06:16:40;0.7;;;0.6;;
24867;SDS011;12941;48.698;9.310;2023-10-31T06:17:45;0.7;;;0.6;;
24867;SDS011;12941;48.698;9.310;2023-10-31T06:18:45;0.7;;;0.6;;
24867;SDS011;12941;48.698;9.310;2023-10-31T06:19:46;0.7;;;0.6;;
24867;SDS011;12941;48.698;9.310;2023-10-31T06:20:46;0.5;;;0.4;;
24867;SDS011;12941;48.698;9.310;2023-10-31T06:21:46;0.5;;;0.4;;
24867;SDS011;12941;48.698;9.310;2023-10-31T06:22:50;0.5;;;0.4;;
24867;SDS011;12941;48.698;9.310;2023-10-31T06:23:50;0.5;;;0.4;;
24867;SDS011;12941;48.698;9.310;2023-10-31T06:24:55;0.5;;;0.4;;
24867;SDS011;12941;48.698;9.310;2023-10-31T06:25:55;1.2;;;0.5;;
24867;SDS011;12941;48.698;9.310;2023-10-31T06:27:00;1.2;;;0.5;;
24867;SDS011;12941;48.698;9.310;2023-10-31T06:28:01;1.2;;;0.5;;
24867;SDS011;12941;48.698;9.310;2023-10-31T06:29:01;1.2;;;0.5;;